sensor_id;sensor_type;location;lat;lon;timestamp;P1;durP1;ratioP1;P2;durP2;ratioP2
48522;SDS011;34315;50.150;11.070;2023-04-01T00:00:58;2.80;;;0.82;;
48522;SDS011;34315;50.150;11.070;2023-04-01T00:06:01;2.75;;;0.80;;
48522;SDS011;34315;50.150;11.070;2023-04-01T00:11:02;2.53;;;0.90;;
48522;SDS011;34315;50.150;11.070;2023-04-01T00:16:03;3.80;;;0.85;;
48522;SDS011;34315;50.150;11.070;2023-04-01T00:21:05;7.40;;;1.17;;
48522;SDS011;34315;50.150;11.070;2023-04-01T00:26:06;3.53;;;1.40;;
48522;SDS011;34315;50.150;11.070;2023-04-01T00:31:08;1.85;;;1.00;;
48522;SDS011;34315;50.150;11.070;2023-04-01T00:36:10;3.50;;;1.10;;
48522;SDS011;34315;50.150;11.070;2023-04-01T00:41:12;4.43;;;1.10;;
48522;SDS011;34315;50.150;11.070;2023-04-01T00:46:15;4.20;;;0.90;;
48522;SDS011;34315;50.150;11.070;2023-04-01T00:51:20;4.68;;;1.30;;
48522;SDS011;34315;50.150;11.070;2023-04-01T00:56:34;3.92;;;1.15;;
48522;SDS011;34315;50.150;11.070;2023-04-01T01:01:37;3.28;;;1.25;;
48522;SDS011;34315;50.150;11.070;2023-04-01T01:12:14;4.33;;;1.07;;
48522;SDS011;34315;50.150;11.070;2023-04-01T01:17:26;1.55;;;0.65;;
48522;SDS011;34315;50.150;11.070;2023-04-01T01:22:45;3.60;;;0.85;;
48522;SDS011;34315;50.150;11.070;2023-04-01T01:39:03;2.78;;;1.00;;
48522;SDS011;34315;50.150;11.070;2023-04-01T01:44:06;4.72;;;0.93;;
48522;SDS011;34315;50.150;11.070;2023-04-01T01:49:08;3.22;;;0.93;;
48522;SDS011;34315;50.150;11.070;2023-04-01T01:54:12;3.25;;;1.45;;
48522;SDS011;34315;50.150;11.070;2023-04-01T01:59:17;3.72;;;1.00;;
48522;SDS011;34315;50.150;11.070;2023-04-01T02:04:19;7.25;;;1.00;;
48522;SDS011;34315;50.150;11.070;2023-04-01T02:09:21;4.68;;;1.15;;
48522;SDS011;34315;50.150;11.070;2023-04-01T02:14:45;5.28;;;1.73;;
48522;SDS011;34315;50.150;11.070;2023-04-01T02:19:50;3.38;;;0.70;;
48522;SDS011;34315;50.150;11.070;2023-04-01T02:25:00;4.30;;;1.05;;
48522;SDS011;34315;50.150;11.070;2023-04-01T02:35:06;3.63;;;0.93;;
48522;SDS011;34315;50.150;11.070;2023-04-01T02:40:10;3.40;;;1.05;;
48522;SDS011;34315;50.150;11.070;2023-04-01T02:45:13;5.55;;;0.98;;
48522;SDS011;34315;50.150;11.070;2023-04-01T02:50:15;3.47;;;1.23;;
48522;SDS011;34315;50.150;11.070;2023-04-01T02:55:16;2.00;;;0.70;;
48522;SDS011;34315;50.150;11.070;2023-04-01T03:00:17;4.13;;;0.73;;
48522;SDS011;34315;50.150;11.070;2023-04-01T03:05:18;3.50;;;0.80;;
48522;SDS011;34315;50.150;11.070;2023-04-01T03:10:20;2.72;;;0.75;;
48522;SDS011;34315;50.150;11.070;2023-04-01T03:15:22;3.13;;;0.90;;
48522;SDS011;34315;50.150;11.070;2023-04-01T03:20:23;3.80;;;0.68;;
48522;SDS011;34315;50.150;11.070;2023-04-01T03:25:24;4.45;;;0.93;;
48522;SDS011;34315;50.150;11.070;2023-04-01T03:30:25;4.40;;;1.30;;
48522;SDS011;34315;50.150;11.070;2023-04-01T03:35:27;3.60;;;0.90;;
48522;SDS011;34315;50.150;11.070;2023-04-01T03:40:28;6.13;;;1.08;;
48522;SDS011;34315;50.150;11.070;2023-04-01T03:45:29;2.70;;;1.00;;
48522;SDS011;34315;50.150;11.070;2023-04-01T03:50:30;2.80;;;1.02;;
48522;SDS011;34315;50.150;11.070;2023-04-01T03:55:31;2.25;;;0.77;;
48522;SDS011;34315;50.150;11.070;2023-04-01T04:00:33;4.47;;;1.00;;
48522;SDS011;34315;50.150;11.070;2023-04-01T04:05:34;4.57;;;1.27;;
48522;SDS011;34315;50.150;11.070;2023-04-01T04:10:36;3.53;;;0.90;;
48522;SDS011;34315;50.150;11.070;2023-04-01T04:15:38;3.92;;;0.90;;
48522;SDS011;34315;50.150;11.070;2023-04-01T04:20:43;5.20;;;0.90;;
48522;SDS011;34315;50.150;11.070;2023-04-01T04:25:57;2.97;;;0.90;;
48522;SDS011;34315;50.150;11.070;2023-04-01T04:31:01;2.08;;;0.80;;
48522;SDS011;34315;50.150;11.070;2023-04-01T04:36:03;5.65;;;1.00;;
48522;SDS011;34315;50.150;11.070;2023-04-01T04:41:08;4.80;;;1.30;;
48522;SDS011;34315;50.150;11.070;2023-04-01T04:46:11;2.72;;;0.50;;
48522;SDS011;34315;50.150;11.070;2023-04-01T04:51:16;4.20;;;0.88;;
48522;SDS011;34315;50.150;11.070;2023-04-01T04:56:20;6.05;;;1.33;;
48522;SDS011;34315;50.150;11.070;2023-04-01T05:01:28;4.82;;;0.80;;
48522;SDS011;34315;50.150;11.070;2023-04-01T05:06:29;3.25;;;0.65;;
48522;SDS011;34315;50.150;11.070;2023-04-01T05:11:32;4.40;;;1.27;;
48522;SDS011;34315;50.150;11.070;2023-04-01T05:16:33;3.83;;;1.30;;
48522;SDS011;34315;50.150;11.070;2023-04-01T05:21:34;3.47;;;1.00;;
48522;SDS011;34315;50.150;11.070;2023-04-01T05:26:36;3.42;;;1.23;;
48522;SDS011;34315;50.150;11.070;2023-04-01T05:31:37;3.70;;;0.85;;
48522;SDS011;34315;50.150;11.070;2023-04-01T05:36:40;3.25;;;0.60;;
48522;SDS011;34315;50.150;11.070;2023-04-01T05:41:42;4.38;;;0.90;;
48522;SDS011;34315;50.150;11.070;2023-04-01T05:46:43;3.55;;;0.70;;
48522;SDS011;34315;50.150;11.070;2023-04-01T05:52:04;3.95;;;0.98;;
48522;SDS011;34315;50.150;11.070;2023-04-01T05:57:08;2.70;;;0.53;;
48522;SDS011;34315;50.150;11.070;2023-04-01T06:02:10;2.60;;;0.70;;
48522;SDS011;34315;50.150;11.070;2023-04-01T06:07:12;4.05;;;0.98;;
48522;SDS011;34315;50.150;11.070;2023-04-01T06:28:23;1.52;;;0.70;;
48522;SDS011;34315;50.150;11.070;2023-04-01T06:33:52;2.72;;;0.95;;
48522;SDS011;34315;50.150;11.070;2023-04-01T06:49:50;4.43;;;1.02;;
48522;SDS011;34315;50.150;11.070;2023-04-01T06:55:32;1.63;;;0.77;;
48522;SDS011;34315;50.150;11.070;2023-04-01T07:00:57;3.38;;;0.85;;
48522;SDS011;34315;50.150;11.070;2023-04-01T07:06:04;2.65;;;0.70;;
48522;SDS011;34315;50.150;11.070;2023-04-01T07:11:21;2.53;;;0.47;;
48522;SDS011;34315;50.150;11.070;2023-04-01T07:16:53;2.28;;;1.10;;
48522;SDS011;34315;50.150;11.070;2023-04-01T07:22:04;4.45;;;1.30;;
48522;SDS011;34315;50.150;11.070;2023-04-01T07:27:28;2.15;;;0.52;;
48522;SDS011;34315;50.150;11.070;2023-04-01T07:32:32;2.25;;;0.80;;
48522;SDS011;34315;50.150;11.070;2023-04-01T07:43:27;1.50;;;0.57;;
48522;SDS011;34315;50.150;11.070;2023-04-01T07:48:55;2.50;;;0.90;;
48522;SDS011;34315;50.150;11.070;2023-04-01T07:54:09;1.25;;;0.65;;
48522;SDS011;34315;50.150;11.070;2023-04-01T08:20:46;3.40;;;1.15;;
48522;SDS011;34315;50.150;11.070;2023-04-01T08:31:09;6.93;;;1.02;;
48522;SDS011;34315;50.150;11.070;2023-04-01T08:36:19;1.73;;;0.63;;
48522;SDS011;34315;50.150;11.070;2023-04-01T08:52:37;1.52;;;0.68;;
48522;SDS011;34315;50.150;11.070;2023-04-01T09:14:08;3.50;;;0.82;;
48522;SDS011;34315;50.150;11.070;2023-04-01T09:25:12;2.53;;;0.80;;
48522;SDS011;34315;50.150;11.070;2023-04-01T10:19:43;2.90;;;0.88;;
48522;SDS011;34315;50.150;11.070;2023-04-01T10:52:09;1.45;;;0.57;;
48522;SDS011;34315;50.150;11.070;2023-04-01T11:09:18;0.80;;;0.50;;
48522;SDS011;34315;50.150;11.070;2023-04-01T11:24:55;1.13;;;0.80;;
48522;SDS011;34315;50.150;11.070;2023-04-01T11:30:16;2.80;;;1.05;;
48522;SDS011;34315;50.150;11.070;2023-04-01T11:35:25;3.47;;;1.25;;
48522;SDS011;34315;50.150;11.070;2023-04-01T11:40:54;2.22;;;0.77;;
48522;SDS011;34315;50.150;11.070;2023-04-01T11:46:18;2.45;;;1.40;;
48522;SDS011;34315;50.150;11.070;2023-04-01T11:51:29;2.00;;;1.17;;
48522;SDS011;34315;50.150;11.070;2023-04-01T12:12:53;1.40;;;0.88;;
48522;SDS011;34315;50.150;11.070;2023-04-01T12:18:05;3.05;;;0.90;;
48522;SDS011;34315;50.150;11.070;2023-04-01T12:23:29;1.23;;;0.57;;
48522;SDS011;34315;50.150;11.070;2023-04-01T12:50:43;1.42;;;0.88;;
48522;SDS011;34315;50.150;11.070;2023-04-01T12:55:56;1.55;;;0.95;;
48522;SDS011;34315;50.150;11.070;2023-04-01T13:17:02;1.27;;;0.90;;
48522;SDS011;34315;50.150;11.070;2023-04-01T13:22:16;1.17;;;0.80;;
48522;SDS011;34315;50.150;11.070;2023-04-01T13:27:37;1.00;;;0.52;;
48522;SDS011;34315;50.150;11.070;2023-04-01T13:38:32;0.88;;;0.52;;
48522;SDS011;34315;50.150;11.070;2023-04-01T13:49:32;3.03;;;1.27;;
48522;SDS011;34315;50.150;11.070;2023-04-01T13:54:51;1.65;;;1.13;;
48522;SDS011;34315;50.150;11.070;2023-04-01T14:38:02;2.05;;;1.05;;
48522;SDS011;34315;50.150;11.070;2023-04-01T14:49:51;2.53;;;1.33;;
48522;SDS011;34315;50.150;11.070;2023-04-01T14:54:39;4.10;;;2.05;;
48522;SDS011;34315;50.150;11.070;2023-04-01T14:59:51;3.33;;;1.67;;
48522;SDS011;34315;50.150;11.070;2023-04-01T15:16:11;2.10;;;1.05;;
48522;SDS011;34315;50.150;11.070;2023-04-01T15:21:53;1.02;;;0.90;;
48522;SDS011;34315;50.150;11.070;2023-04-01T16:09:55;2.65;;;1.20;;
48522;SDS011;34315;50.150;11.070;2023-04-01T16:15:15;6.30;;;2.20;;
48522;SDS011;34315;50.150;11.070;2023-04-01T16:20:24;4.20;;;1.90;;
48522;SDS011;34315;50.150;11.070;2023-04-01T16:25:40;5.00;;;2.70;;
48522;SDS011;34315;50.150;11.070;2023-04-01T16:30:57;8.38;;;4.63;;
48522;SDS011;34315;50.150;11.070;2023-04-01T16:36:09;4.00;;;2.00;;
48522;SDS011;34315;50.150;11.070;2023-04-01T16:46:26;7.00;;;3.33;;
48522;SDS011;34315;50.150;11.070;2023-04-01T17:02:17;11.07;;;3.92;;
48522;SDS011;34315;50.150;11.070;2023-04-01T17:07:48;3.10;;;1.70;;
48522;SDS011;34315;50.150;11.070;2023-04-01T17:18:38;5.20;;;2.50;;
48522;SDS011;34315;50.150;11.070;2023-04-01T17:29:09;5.32;;;2.40;;
48522;SDS011;34315;50.150;11.070;2023-04-01T17:34:25;3.85;;;1.85;;
48522;SDS011;34315;50.150;11.070;2023-04-01T17:39:33;3.55;;;1.75;;
48522;SDS011;34315;50.150;11.070;2023-04-01T17:44:51;2.90;;;1.48;;
48522;SDS011;34315;50.150;11.070;2023-04-01T17:55:18;4.90;;;1.52;;
48522;SDS011;34315;50.150;11.070;2023-04-01T18:06:14;5.18;;;2.03;;
48522;SDS011;34315;50.150;11.070;2023-04-01T18:22:18;3.85;;;2.00;;
48522;SDS011;34315;50.150;11.070;2023-04-01T18:27:23;4.57;;;1.98;;
48522;SDS011;34315;50.150;11.070;2023-04-01T18:32:32;4.63;;;1.80;;
48522;SDS011;34315;50.150;11.070;2023-04-01T18:37:39;3.97;;;1.90;;
48522;SDS011;34315;50.150;11.070;2023-04-01T18:53:37;4.20;;;1.90;;
48522;SDS011;34315;50.150;11.070;2023-04-01T19:03:58;9.02;;;3.35;;
48522;SDS011;34315;50.150;11.070;2023-04-01T19:09:42;4.95;;;2.30;;
48522;SDS011;34315;50.150;11.070;2023-04-01T19:14:51;5.82;;;2.40;;
48522;SDS011;34315;50.150;11.070;2023-04-01T19:20:18;4.60;;;2.03;;
48522;SDS011;34315;50.150;11.070;2023-04-01T19:46:49;6.97;;;2.90;;
48522;SDS011;34315;50.150;11.070;2023-04-01T19:52:00;4.57;;;2.10;;
48522;SDS011;34315;50.150;11.070;2023-04-01T20:02:35;4.15;;;1.73;;
48522;SDS011;34315;50.150;11.070;2023-04-01T20:07:40;1.60;;;1.30;;
48522;SDS011;34315;50.150;11.070;2023-04-01T20:18:19;6.03;;;1.98;;
48522;SDS011;34315;50.150;11.070;2023-04-01T20:23:33;2.83;;;1.60;;
48522;SDS011;34315;50.150;11.070;2023-04-01T21:01:02;3.10;;;1.80;;
48522;SDS011;34315;50.150;11.070;2023-04-01T21:06:35;4.63;;;1.70;;
48522;SDS011;34315;50.150;11.070;2023-04-01T21:12:14;5.47;;;2.00;;
48522;SDS011;34315;50.150;11.070;2023-04-01T21:22:49;3.75;;;1.90;;
48522;SDS011;34315;50.150;11.070;2023-04-01T21:28:04;3.55;;;1.83;;
48522;SDS011;34315;50.150;11.070;2023-04-01T21:33:32;2.10;;;1.20;;
48522;SDS011;34315;50.150;11.070;2023-04-01T21:39:01;3.97;;;1.30;;
48522;SDS011;34315;50.150;11.070;2023-04-01T22:00:38;1.55;;;1.00;;
48522;SDS011;34315;50.150;11.070;2023-04-01T22:05:40;2.13;;;1.23;;
48522;SDS011;34315;50.150;11.070;2023-04-01T22:10:49;1.77;;;1.30;;
48522;SDS011;34315;50.150;11.070;2023-04-01T22:27:14;4.60;;;1.40;;
48522;SDS011;34315;50.150;11.070;2023-04-01T22:32:34;1.60;;;1.20;;
48522;SDS011;34315;50.150;11.070;2023-04-01T22:43:19;2.42;;;1.25;;
48522;SDS011;34315;50.150;11.070;2023-04-01T22:48:40;6.18;;;1.17;;
48522;SDS011;34315;50.150;11.070;2023-04-01T22:53:47;3.63;;;1.50;;
48522;SDS011;34315;50.150;11.070;2023-04-01T22:59:06;2.57;;;1.30;;
48522;SDS011;34315;50.150;11.070;2023-04-01T23:04:24;1.55;;;1.17;;
48522;SDS011;34315;50.150;11.070;2023-04-01T23:09:33;3.50;;;1.25;;
48522;SDS011;34315;50.150;11.070;2023-04-01T23:14:46;1.90;;;1.23;;
48522;SDS011;34315;50.150;11.070;2023-04-01T23:20:12;1.75;;;1.00;;
48522;SDS011;34315;50.150;11.070;2023-04-01T23:31:00;2.38;;;1.10;;
48522;SDS011;34315;50.150;11.070;2023-04-01T23:36:09;1.77;;;1.40;;
48522;SDS011;34315;50.150;11.070;2023-04-01T23:41:17;1.10;;;1.00;;
48522;SDS011;34315;50.150;11.070;2023-04-01T23:46:20;2.38;;;1.40;;
48522;SDS011;34315;50.150;11.070;2023-04-01T23:51:23;3.30;;;1.35;;
48522;SDS011;34315;50.150;11.070;2023-04-01T23:56:37;1.50;;;1.17;;
